Time;durP1;ratioP1;P1;durP2;ratioP2;P2;SDS_P1;SDS_P2;PMS_P1;PMS_P2;Temp;Humidity;BMP_temperature;BMP_pressure;BME280_temperature;BME280_humidity;BME280_pressure;Samples;Min_cycle;Max_cycle;Signal;HPM_P1;HPM_P2
2022/06/04 00:00:23;;;;;;;13.07;10.60;;;15.30;99.90;;;;;;4996721;28;20488;-90
2022/06/04 00:02:51;;;;;;;11.23;10.30;;;15.20;99.90;;;;;;4996651;28;20450;-91
2022/06/04 00:05:20;;;;;;;10.97;10.07;;;15.30;99.90;;;;;;4995577;28;20452;-92
2022/06/04 00:07:47;;;;;;;11.53;10.53;;;;;;;;;;4996830;28;20460;-93
2022/06/04 00:15:50;;;;;;;11.50;10.50;;;15.10;99.90;;;;;;4996598;28;20531;-94
2022/06/04 00:18:18;;;;;;;11.17;10.27;;;15.10;99.90;;;;;;4996887;28;20449;-94
2022/06/04 00:20:45;;;;;;;11.77;10.67;;;;;;;;;;4995679;28;20452;-93
2022/06/04 00:23:13;;;;;;;11.07;10.13;;;15.10;99.90;;;;;;4996417;28;20454;-93
2022/06/04 00:25:43;;;;;;;11.20;10.20;;;15.10;99.90;;;;;;4996434;28;20449;-91
2022/06/04 00:28:11;;;;;;;10.60;9.80;;;15.00;99.90;;;;;;4996736;28;20456;-92
2022/06/04 00:30:39;;;;;;;9.80;9.00;;;;;;;;;;4996456;28;20448;-93
2022/06/04 00:33:06;;;;;;;12.33;11.13;;;;;;;;;;4996625;28;20807;-92
2022/06/04 00:35:34;;;;;;;11.53;10.40;;;;;;;;;;4995391;28;20445;-91
2022/06/04 00:38:01;;;;;;;11.37;10.37;;;;;;;;;;4996085;28;20545;-92
2022/06/04 00:40:34;;;;;;;10.60;9.50;;;15.00;99.90;;;;;;4995996;28;20566;-93
2022/06/04 00:43:03;;;;;;;11.63;10.57;;;14.90;99.90;;;;;;4996243;28;20461;-89
2022/06/04 00:46:07;;;;;;;11.60;10.60;;;14.90;99.90;;;;;;4996063;28;20536;-89
2022/06/04 00:48:34;;;;;;;12.10;11.00;;;;;;;;;;4996092;28;20449;-90
2022/06/04 00:51:02;;;;;;;10.97;9.97;;;14.90;99.90;;;;;;4995461;28;20890;-93
2022/06/04 00:53:30;;;;;;;10.50;9.60;;;;;;;;;;4975814;28;20452;-93
2022/06/04 00:56:11;;;;;;;11.93;10.77;;;14.50;99.90;;;;;;4996531;28;20500;-91
2022/06/04 00:58:53;;;;;;;11.53;10.40;;;14.70;99.90;;;;;;4996592;28;20461;-92
2022/06/04 01:01:24;;;;;;;11.00;10.10;;;14.70;99.90;;;;;;4998007;28;20465;-89
2022/06/04 01:04:05;;;;;;;12.83;11.63;;;14.80;99.90;;;;;;4995508;28;20460;-92
2022/06/04 01:06:48;;;;;;;12.60;11.10;;;14.70;99.90;;;;;;4996203;28;20456;-92
2022/06/04 01:09:38;;;;;;;11.63;10.50;;;14.80;99.90;;;;;;4995960;28;20452;-91
2022/06/04 01:12:25;;;;;;;14.43;11.27;;;14.70;99.90;;;;;;4996068;28;20452;-90
2022/06/04 01:15:08;;;;;;;14.40;10.93;;;14.70;99.90;;;;;;4995852;28;20932;-94
2022/06/04 01:17:49;;;;;;;11.90;10.67;;;14.70;99.90;;;;;;4994606;28;20519;-92
2022/06/04 01:20:25;;;;;;;12.70;11.60;;;14.70;99.90;;;;;;4995133;28;20445;-90
2022/06/04 01:23:17;;;;;;;11.50;10.57;;;14.70;99.90;;;;;;4997628;28;20948;-90
2022/06/04 01:26:13;;;;;;;12.93;10.90;;;14.70;99.90;;;;;;4986214;28;20464;-92
2022/06/04 01:28:45;;;;;;;11.10;10.00;;;14.60;99.90;;;;;;4973458;28;20461;-91
2022/06/04 01:31:17;;;;;;;12.47;11.27;;;14.60;99.90;;;;;;4995314;28;20524;-90
2022/06/04 01:33:50;;;;;;;11.90;10.80;;;14.60;99.90;;;;;;4994055;28;20453;-92
2022/06/04 01:36:22;;;;;;;12.33;11.23;;;14.70;99.90;;;;;;4995333;28;20489;-92
2022/06/04 01:38:54;;;;;;;12.80;11.60;;;14.80;99.90;;;;;;4994958;28;20481;-90
2022/06/04 01:41:26;;;;;;;12.17;10.90;;;14.80;99.90;;;;;;4991931;28;20450;-91
2022/06/04 01:43:57;;;;;;;13.50;10.93;;;14.80;99.90;;;;;;4994638;28;20453;-90
2022/06/04 01:46:28;;;;;;;12.60;11.43;;;14.80;99.90;;;;;;4994826;28;20465;-91
2022/06/04 01:48:58;;;;;;;11.90;10.90;;;14.80;99.90;;;;;;4993032;28;20442;-89
2022/06/04 01:51:29;;;;;;;11.40;10.40;;;14.80;99.90;;;;;;4994513;28;20465;-92
2022/06/04 01:54:00;;;;;;;11.70;10.70;;;14.80;99.90;;;;;;4995043;28;20453;-93
2022/06/04 01:56:30;;;;;;;13.17;10.57;;;14.80;99.90;;;;;;4994813;28;20496;-92
2022/06/04 01:59:02;;;;;;;13.07;11.87;;;14.70;99.90;;;;;;4994652;28;20453;-90
2022/06/04 02:01:32;;;;;;;12.73;11.20;;;14.70;99.90;;;;;;4994848;28;20471;-94
2022/06/04 02:04:06;;;;;;;13.07;11.90;;;14.70;99.90;;;;;;4993600;28;20457;-93
2022/06/04 02:06:40;;;;;;;13.00;11.73;;;14.70;99.90;;;;;;4995590;28;20460;-91
2022/06/04 02:09:11;;;;;;;12.47;11.27;;;14.70;99.90;;;;;;4997964;28;20453;-91
2022/06/04 02:11:40;;;;;;;12.30;11.20;;;14.60;99.90;;;;;;5005037;28;20445;-90
2022/06/04 02:14:09;;;;;;;13.20;11.07;;;14.60;99.90;;;;;;5005282;28;20458;-91
2022/06/04 02:16:41;;;;;;;12.50;11.20;;;14.60;99.90;;;;;;4994311;28;20493;-92
2022/06/04 02:19:09;;;;;;;12.33;11.20;;;;;;;;;;4993129;28;20460;-89
2022/06/04 02:21:36;;;;;;;12.20;11.17;;;;;;;;;;4994406;28;20813;-91
2022/06/04 02:24:03;;;;;;;11.60;10.57;;;;;;;;;;4994503;28;20449;-89
2022/06/04 02:26:30;;;;;;;12.43;11.30;;;;;;;;;;4994332;28;20813;-90
2022/06/04 02:28:59;;;;;;;13.43;12.00;;;14.60;99.90;;;;;;4998226;28;20967;-91
2022/06/04 02:31:35;;;;;;;13.87;11.23;;;14.50;99.90;;;;;;4999131;28;20453;-90
2022/06/04 02:34:12;;;;;;;12.03;10.93;;;14.40;99.90;;;;;;4997038;28;20492;-91
2022/06/04 02:36:43;;;;;;;12.30;11.23;;;14.40;99.90;;;;;;4998087;28;20488;-88
2022/06/04 02:39:16;;;;;;;12.17;11.17;;;14.40;99.90;;;;;;4998663;28;20485;-88
2022/06/04 02:41:50;;;;;;;14.70;12.27;;;14.40;99.90;;;;;;4997809;28;20456;-88
2022/06/04 02:44:25;;;;;;;12.13;11.13;;;14.40;99.90;;;;;;4998060;28;20456;-91
2022/06/04 02:47:01;;;;;;;13.30;12.00;;;14.30;99.90;;;;;;4998755;28;20456;-90
2022/06/04 02:49:36;;;;;;;12.40;11.20;;;14.30;99.90;;;;;;4996813;28;20449;-93
2022/06/04 02:52:04;;;;;;;13.23;12.03;;;14.40;99.90;;;;;;4998042;28;20446;-92
2022/06/04 02:54:36;;;;;;;13.23;11.60;;;14.50;99.90;;;;;;4997635;28;20452;-89
2022/06/04 02:57:05;;;;;;;12.57;10.17;;;14.40;99.90;;;;;;4997756;28;20484;-91
2022/06/04 02:59:35;;;;;;;11.47;10.57;;;14.40;99.90;;;;;;4997826;28;20456;-92
2022/06/04 03:02:07;;;;;;;12.30;11.20;;;14.40;99.90;;;;;;4997613;28;20445;-92
2022/06/04 03:04:41;;;;;;;12.47;11.37;;;14.50;99.90;;;;;;4996410;28;20481;-92
2022/06/04 03:07:09;;;;;;;13.00;11.90;;;;;;;;;;4998070;28;20479;-90
2022/06/04 03:09:38;;;;;;;13.00;11.70;;;;;;;;;;4996255;28;20812;-91
2022/06/04 03:12:06;;;;;;;13.80;12.00;;;14.70;99.90;;;;;;4997517;28;20549;-91
2022/06/04 03:14:33;;;;;;;12.50;11.30;;;;;;;;;;4997485;28;20461;-91
2022/06/04 03:17:00;;;;;;;12.13;11.03;;;;;;;;;;4997343;28;20553;-92
2022/06/04 03:19:28;;;;;;;12.50;11.20;;;14.90;99.90;;;;;;4996262;28;20445;-90
2022/06/04 03:21:56;;;;;;;12.57;11.40;;;;;;;;;;4997371;28;20453;-93
2022/06/04 03:24:23;;;;;;;11.93;10.83;;;;;;;;;;4997808;28;20456;-90
2022/06/04 03:26:50;;;;;;;14.00;12.43;;;;;;;;;;4997577;28;20461;-89
2022/06/04 03:29:17;;;;;;;11.43;10.50;;;;;;;;;;4997343;28;20449;-90
2022/06/04 03:31:44;;;;;;;12.37;11.03;;;;;;;;;;4997086;28;20453;-88
2022/06/04 03:34:12;;;;;;;11.50;10.40;;;15.10;99.90;;;;;;4995808;28;20457;-91
2022/06/04 03:36:41;;;;;;;12.80;11.50;;;15.10;99.90;;;;;;4996832;28;20489;-91
2022/06/04 03:39:09;;;;;;;12.27;11.00;;;15.20;99.90;;;;;;4996122;28;20481;-91
2022/06/04 03:41:37;;;;;;;13.27;10.10;;;;;;;;;;4996764;28;20458;-89
2022/06/04 03:44:04;;;;;;;11.60;10.60;;;;;;;;;;4996805;28;20457;-90
2022/06/04 03:46:31;;;;;;;11.07;9.87;;;;;;;;;;4997045;28;20456;-91
2022/06/04 03:48:59;;;;;;;10.27;9.37;;;15.20;99.90;;;;;;4995635;28;20461;-91
2022/06/04 03:51:28;;;;;;;10.60;9.50;;;15.20;99.90;;;;;;4996660;28;20484;-89
2022/06/04 03:53:56;;;;;;;11.23;10.13;;;15.20;99.90;;;;;;4996606;28;20960;-88
2022/06/04 03:56:23;;;;;;;10.77;9.77;;;;;;;;;;4996737;28;20445;-93
2022/06/04 03:58:51;;;;;;;10.93;9.47;;;;;;;;;;4996668;28;20445;-92
2022/06/04 04:01:19;;;;;;;9.23;8.43;;;15.50;99.90;;;;;;4997213;28;20460;-88
2022/06/04 04:03:46;;;;;;;11.80;10.40;;;;;;;;;;4995165;28;20553;-91
2022/06/04 04:06:15;;;;;;;10.87;9.87;;;15.60;99.90;;;;;;4996743;28;20450;-90
2022/06/04 04:08:42;;;;;;;10.50;9.40;;;;;;;;;;4996579;28;20461;-90
2022/06/04 04:11:13;;;;;;;9.87;8.97;;;15.60;99.90;;;;;;4996623;28;20445;-92
2022/06/04 04:13:41;;;;;;;9.50;8.60;;;;;;;;;;4996545;28;20450;-91
2022/06/04 04:16:10;;;;;;;9.77;8.83;;;15.60;99.90;;;;;;4996519;28;20449;-89
2022/06/04 04:18:37;;;;;;;9.70;8.80;;;;;;;;;;4996373;28;20493;-92
2022/06/04 04:21:06;;;;;;;10.30;9.40;;;;;;;;;;4995587;28;20449;-91
2022/06/04 04:23:33;;;;;;;10.17;9.10;;;;;;;;;;4996406;28;20454;-92
2022/06/04 04:26:01;;;;;;;10.53;9.63;;;;;;;;;;4996266;28;20937;-92
2022/06/04 04:28:29;;;;;;;9.50;8.60;;;15.90;99.90;;;;;;4996156;28;20454;-92
2022/06/04 04:30:57;;;;;;;9.10;8.37;;;;;;;;;;4997620;28;20496;-92
2022/06/04 04:33:24;;;;;;;9.57;8.67;;;;;;;;;;4998295;28;20461;-90
2022/06/04 04:35:52;;;;;;;9.50;8.67;;;;;;;;;;4995158;28;20516;-90
2022/06/04 04:38:21;;;;;;;9.00;8.20;;;;;;;;;;4996681;28;20497;-90
2022/06/04 04:40:48;;;;;;;9.23;8.33;;;;;;;;;;4997084;28;20512;-89
2022/06/04 04:43:16;;;;;;;10.00;9.00;;;16.70;99.90;;;;;;4997336;28;20465;-91
2022/06/04 04:45:44;;;;;;;8.87;7.97;;;16.70;99.90;;;;;;5000000;28;20453;-89
2022/06/04 04:48:11;;;;;;;9.40;8.50;;;;;;;;;;5009744;28;20457;-92
2022/06/04 04:50:41;;;;;;;9.30;8.50;;;17.00;99.90;;;;;;4997210;28;20473;-91
2022/06/04 04:53:10;;;;;;;8.33;7.73;;;17.20;99.90;;;;;;4996093;28;20477;-92
2022/06/04 04:55:38;;;;;;;7.77;7.10;;;;;;;;;;4998005;28;20461;-90
2022/06/04 04:58:05;;;;;;;8.60;7.60;;;17.20;99.90;;;;;;4997289;28;20504;-89
2022/06/04 05:00:32;;;;;;;9.90;7.53;;;;;;;;;;4996968;28;20457;-92
2022/06/04 05:03:01;;;;;;;8.83;8.00;;;17.30;99.90;;;;;;4997994;28;20457;-93
2022/06/04 05:05:29;;;;;;;7.77;7.13;;;;;;;;;;4994947;28;20462;-92
2022/06/04 05:07:56;;;;;;;7.50;6.80;;;;;;;;;;4995910;28;20453;-92
2022/06/04 05:10:24;;;;;;;8.07;7.33;;;;;;;;;;4996144;28;20457;-92
2022/06/04 05:12:52;;;;;;;7.23;6.63;;;;;;;;;;4995743;28;20604;-92
2022/06/04 05:15:19;;;;;;;8.50;6.90;;;;;;;;;;4995638;28;20473;-92
2022/06/04 05:17:46;;;;;;;6.40;5.80;;;;;;;;;;4995623;28;20499;-93
2022/06/04 05:20:15;;;;;;;6.53;5.80;;;18.00;99.90;;;;;;4994200;28;20457;-92
2022/06/04 05:22:42;;;;;;;5.80;5.20;;;;;;;;;;4994926;28;20465;-90
2022/06/04 05:25:11;;;;;;;6.13;5.57;;;18.00;99.90;;;;;;4994476;28;20532;-90
2022/06/04 05:27:38;;;;;;;5.87;5.40;;;;;;;;;;4995285;28;20457;-92
2022/06/04 05:30:06;;;;;;;4.90;4.30;;;;;;;;;;4994876;28;20449;-90
2022/06/04 05:32:33;;;;;;;4.77;4.30;;;;;;;;;;4994881;28;20456;-91
2022/06/04 05:35:00;;;;;;;4.87;4.47;;;;;;;;;;4993800;28;20441;-91
2022/06/04 05:37:30;;;;;;;4.80;4.30;;;;;;;;;;4995029;28;20489;-91
2022/06/04 05:39:57;;;;;;;5.63;5.13;;;18.10;99.90;;;;;;4996255;28;20485;-89
2022/06/04 05:42:25;;;;;;;5.40;4.90;;;;;;;;;;4996776;28;20445;-92
2022/06/04 05:44:52;;;;;;;5.50;5.00;;;17.90;99.90;;;;;;4996891;28;20592;-91
2022/06/04 05:47:20;;;;;;;6.27;5.77;;;;;;;;;;4995802;28;20917;-92
2022/06/04 05:49:47;;;;;;;6.10;5.50;;;;;;;;;;4994991;28;20484;-88
2022/06/04 05:52:14;;;;;;;6.57;5.97;;;;;;;;;;4997238;28;20449;-93
2022/06/04 05:54:51;;;;;;;4.93;4.47;;;;;;;;;;4997621;28;20473;-91
2022/06/04 05:57:24;;;;;;;6.23;5.73;;;;;;;;;;5001574;28;20448;-94
2022/06/04 05:59:52;;;;;;;4.10;3.80;;;;;;;;;;5001830;28;20437;-90
2022/06/04 06:02:21;;;;;;;7.60;5.60;;;;;;;;;;5005301;28;20461;-92
2022/06/04 06:04:48;;;;;;;6.60;5.90;;;;;;;;;;4999786;28;20859;-90
2022/06/04 06:07:21;;;;;;;5.27;4.77;;;;;;;;;;5004602;28;20500;-92
2022/06/04 06:09:52;;;;;;;7.80;6.97;;;;;;;;;;5003090;28;20521;-91
2022/06/04 06:12:22;;;;;;;6.80;6.10;;;;;;;;;;5009393;28;20437;-92
2022/06/04 06:14:51;;;;;;;13.43;6.97;;;;;;;;;;5018598;28;20442;-93
2022/06/04 06:17:21;;;;;;;11.83;7.90;;;;;;;;;;5000788;28;20460;-93
2022/06/04 06:19:48;;;;;;;8.93;8.00;;;;;;;;;;5001535;28;20468;-92
2022/06/04 06:22:15;;;;;;;7.60;6.40;;;;;;;;;;5006145;28;20850;-94
2022/06/04 06:24:43;;;;;;;7.93;3.50;;;;;;;;;;4995900;28;20448;-90
2022/06/04 06:27:12;;;;;;;9.40;8.50;;;;;;;;;;4996888;28;20521;-90
2022/06/04 06:29:39;;;;;;;11.73;9.03;;;;;;;;;;4995378;28;20445;-89
2022/06/04 06:32:07;;;;;;;11.87;7.43;;;16.50;99.90;;;;;;4995371;28;20449;-89
2022/06/04 06:34:34;;;;;;;10.53;9.07;;;;;;;;;;4994273;28;20445;-88
2022/06/04 06:37:01;;;;;;;9.30;8.40;;;;;;;;;;4997320;28;20444;-91
2022/06/04 06:39:30;;;;;;;13.63;9.53;;;;;;;;;;4997150;28;21002;-91
2022/06/04 06:41:57;;;;;;;9.57;8.57;;;;;;;;;;4997120;28;20944;-90
2022/06/04 06:44:27;;;;;;;12.23;9.10;;;16.70;99.90;;;;;;4997398;28;20453;-90
2022/06/04 06:46:54;;;;;;;9.77;8.77;;;;;;;;;;4995759;28;20472;-90
2022/06/04 06:49:23;;;;;;;14.67;9.70;;;17.10;99.90;;;;;;4994945;28;20465;-90
2022/06/04 06:51:53;;;;;;;10.70;9.70;;;17.20;99.90;;;;;;4996302;28;20456;-89
2022/06/04 06:54:22;;;;;;;10.90;9.87;;;17.20;99.90;;;;;;4995778;28;20459;-89
2022/06/04 06:56:50;;;;;;;10.33;9.23;;;17.30;99.90;;;;;;4994928;28;20504;-90
2022/06/04 06:59:20;;;;;;;11.97;9.50;;;17.40;99.90;;;;;;4995734;28;20497;-90
2022/06/04 07:01:48;;;;;;;12.20;10.30;;;17.30;99.90;;;;;;4995406;28;20456;-90
2022/06/04 07:04:16;;;;;;;15.10;8.33;;;;;;;;;;4994929;28;20503;-91
2022/06/04 07:06:46;;;;;;;10.27;9.30;;;17.40;99.90;;;;;;4995555;28;20453;-89
2022/06/04 07:09:17;;;;;;;9.97;8.97;;;17.50;99.90;;;;;;4996155;28;20445;-92
2022/06/04 07:11:44;;;;;;;16.03;10.40;;;;;;;;;;4994972;28;20448;-92
2022/06/04 07:14:12;;;;;;;10.53;9.53;;;17.70;99.90;;;;;;4996836;28;20452;-91
2022/06/04 07:16:39;;;;;;;12.57;10.00;;;;;;;;;;4999902;28;20728;-92
2022/06/04 07:19:08;;;;;;;10.77;9.77;;;17.70;99.90;;;;;;4998174;28;20504;-90
2022/06/04 07:21:36;;;;;;;11.10;9.77;;;;;;;;;;5000694;28;20457;-90
2022/06/04 07:24:03;;;;;;;11.73;9.43;;;;;;;;;;5003165;28;20460;-91
2022/06/04 07:26:30;;;;;;;14.00;10.90;;;;;;;;;;5002168;28;20975;-91
2022/06/04 07:28:57;;;;;;;9.83;8.93;;;;;;;;;;4999153;28;20461;-93
2022/06/04 07:31:25;;;;;;;9.80;8.87;;;;;;;;;;4998816;28;20453;-90
2022/06/04 07:33:53;;;;;;;10.30;7.47;;;;;;;;;;4996688;28;20457;-93
2022/06/04 07:36:23;;;;;;;8.10;7.20;;;19.70;99.90;;;;;;4998377;28;20457;-92
2022/06/04 07:38:51;;;;;;;8.13;7.43;;;;;;;;;;4999530;28;20856;-92
2022/06/04 07:41:19;;;;;;;7.90;6.80;;;19.30;99.90;;;;;;5000683;28;20488;-92
2022/06/04 07:43:46;;;;;;;7.70;6.90;;;;;;;;;;5000370;28;20959;-91
2022/06/04 07:46:13;;;;;;;8.00;7.30;;;;;;;;;;5000277;28;20453;-95
2022/06/04 07:48:40;;;;;;;8.63;6.73;;;;;;;;;;4999910;28;20477;-93
2022/06/04 07:51:09;;;;;;;5.83;5.30;;;;;;;;;;5000406;28;20953;-92
2022/06/04 07:53:37;;;;;;;6.10;5.60;;;20.20;99.90;;;;;;5000568;28;20520;-93
2022/06/04 07:56:08;;;;;;;6.17;5.70;;;20.30;99.90;;;;;;5000660;28;20464;-94
2022/06/04 07:58:36;;;;;;;6.90;6.07;;;;;;;;;;5017993;23;20826;-95
2022/06/04 08:01:03;;;;;;;7.57;6.23;;;;;;;;;;5058433;28;20460;-93
2022/06/04 08:03:33;;;;;;;6.87;6.10;;;21.60;99.90;;;;;;5059569;28;20501;-93
2022/06/04 08:06:01;;;;;;;7.37;6.20;;;;;;;;;;5058115;28;20446;-92
2022/06/04 08:08:28;;;;;;;6.93;6.20;;;;;;;;;;5059829;28;20497;-94
2022/06/04 08:11:01;;;;;;;6.70;6.17;;;21.40;99.90;;;;;;5059459;28;20466;-93
2022/06/04 08:19:16;;;;;;;6.13;5.63;;;;;;;;;;5024503;28;20484;-92
2022/06/04 08:27:18;;;;;;;7.20;6.50;;;;;;;;;;5058075;22;20498;-94
2022/06/04 08:32:42;;;;;;;6.90;6.40;;;;;;;;;;5079035;22;20508;-94
2022/06/04 08:37:37;;;;;;;7.60;6.93;;;;;;;;;;5042363;28;20471;-93
2022/06/04 08:40:09;;;;;;;8.50;7.70;;;;;;;;;;5038400;28;20498;-96
2022/06/04 08:42:50;;;;;;;6.47;5.90;;;22.20;99.90;;;;;;5038002;28;20546;-93
2022/06/04 08:45:17;;;;;;;6.80;6.00;;;;;;;;;;5037111;28;20801;-95
2022/06/04 08:47:47;;;;;;;6.40;5.90;;;;;;;;;;5036042;28;20997;-94
2022/06/04 08:50:19;;;;;;;6.50;5.03;;;24.10;99.90;;;;;;5054822;28;20447;-93
2022/06/04 08:52:48;;;;;;;6.10;5.50;;;24.40;99.90;;;;;;5054379;28;20450;-95
2022/06/04 08:58:19;;;;;;;7.40;6.70;;;24.20;99.90;;;;;;5036906;28;20802;-92
2022/06/04 09:00:53;;;;;;;6.60;6.00;;;23.60;99.90;;;;;;4994327;28;20523;-93
2022/06/04 09:03:27;;;;;;;6.33;5.73;;;23.90;99.90;;;;;;4992247;28;20457;-95
2022/06/04 09:06:04;;;;;;;6.60;6.20;;;24.80;99.90;;;;;;4987275;28;20445;-92
2022/06/04 09:08:42;;;;;;;6.40;5.30;;;25.50;99.90;;;;;;4994175;28;20457;-93
2022/06/04 09:11:13;;;;;;;5.50;4.80;;;25.90;99.90;;;;;;4993870;28;20454;-91
2022/06/04 09:13:48;;;;;;;5.00;4.60;;;26.40;99.90;;;;;;4994219;28;20556;-92
2022/06/04 09:16:25;;;;;;;6.20;3.80;;;26.30;99.90;;;;;;4993964;28;20453;-92
2022/06/04 09:18:57;;;;;;;4.87;4.37;;;25.70;99.90;;;;;;5011026;28;20536;-91
2022/06/04 09:21:27;;;;;;;8.20;4.73;;;25.60;99.90;;;;;;5038386;28;20451;-93
2022/06/04 09:23:55;;;;;;;4.60;4.30;;;;;;;;;;5036078;28;20448;-93
2022/06/04 09:26:31;;;;;;;4.30;3.90;;;24.20;99.90;;;;;;5033521;28;20531;-93
2022/06/04 09:29:13;;;;;;;4.70;4.13;;;24.50;99.90;;;;;;5035133;28;20451;-91
2022/06/04 09:31:46;;;;;;;4.27;3.97;;;24.60;99.90;;;;;;5034266;28;20451;-92
2022/06/04 09:34:19;;;;;;;4.73;4.30;;;24.30;99.90;;;;;;5033577;28;20945;-92
2022/06/04 09:36:47;;;;;;;4.37;4.03;;;24.30;99.90;;;;;;5032621;28;20503;-92
2022/06/04 09:39:22;;;;;;;5.93;3.93;;;24.20;99.90;;;;;;5035333;28;20491;-91
2022/06/04 09:41:54;;;;;;;5.37;4.87;;;24.50;99.90;;;;;;5035115;28;20454;-92
2022/06/04 09:44:24;;;;;;;7.30;3.90;;;24.10;99.90;;;;;;5034585;28;20443;-93
2022/06/04 09:46:56;;;;;;;5.43;4.90;;;23.70;99.90;;;;;;5034225;28;20459;-91
2022/06/04 09:49:33;;;;;;;6.10;4.20;;;23.70;99.90;;;;;;5033459;28;20463;-92
2022/06/04 09:52:11;;;;;;;5.83;4.20;;;22.80;99.90;;;;;;5034865;28;20459;-93
2022/06/04 09:54:40;;;;;;;6.83;4.20;;;;;;;;;;5031524;28;20455;-92
2022/06/04 09:57:08;;;;;;;6.70;4.90;;;;;;;;;;5035163;28;20443;-91
2022/06/04 09:59:36;;;;;;;5.80;5.30;;;23.00;99.90;;;;;;5035384;28;20862;-92
2022/06/04 10:02:19;;;;;;;6.20;5.60;;;23.50;99.90;;;;;;5031599;28;20452;-93
2022/06/04 10:04:47;;;;;;;6.93;6.33;;;;;;;;;;5029740;28;20546;-90
2022/06/04 10:07:17;;;;;;;8.03;7.23;;;23.20;99.90;;;;;;5034005;28;20452;-92
2022/06/04 10:09:56;;;;;;;9.10;8.30;;;22.90;99.90;;;;;;5029736;28;20462;-91
2022/06/04 10:13:42;;;;;;;8.57;7.87;;;22.30;99.90;;;;;;5034038;28;20459;-92
2022/06/04 10:15:24;;;;;;;8.47;7.30;;;22.10;99.90;;;;;;5033414;28;20902;-91
2022/06/04 10:18:01;;;;;;;8.60;7.80;;;21.90;99.90;;;;;;5033496;28;20447;-91
2022/06/04 10:20:29;;;;;;;7.47;6.87;;;;;;;;;;5032230;28;21027;-91
2022/06/04 10:22:56;;;;;;;7.90;7.20;;;;;;;;;;5029793;28;20455;-91
2022/06/04 10:25:29;;;;;;;8.07;7.33;;;22.00;99.90;;;;;;5033651;28;20486;-92
2022/06/04 10:28:10;;;;;;;8.30;7.60;;;21.80;99.90;;;;;;5034397;28;20798;-91
2022/06/04 10:30:46;;;;;;;9.27;8.50;;;21.60;99.90;;;;;;5033468;28;20514;-90
2022/06/04 10:33:24;;;;;;;10.63;9.63;;;21.60;99.90;;;;;;5031463;28;20854;-92
2022/06/04 10:36:13;;;;;;;11.43;9.87;;;21.60;99.90;;;;;;5031858;28;20502;-91
2022/06/04 10:38:56;;;;;;;11.67;10.77;;;21.70;99.90;;;;;;5033295;28;20462;-91
2022/06/04 10:41:36;;;;;;;11.20;10.30;;;21.90;99.90;;;;;;5028430;28;20486;-91
2022/06/04 10:44:21;;;;;;;13.43;12.23;;;21.90;99.90;;;;;;5033091;28;20469;-90
2022/06/04 10:46:59;;;;;;;12.40;11.30;;;21.80;99.90;;;;;;5026323;28;20490;-90
2022/06/04 10:49:42;;;;;;;11.37;10.37;;;21.60;99.90;;;;;;5034532;28;20458;-90
2022/06/04 10:52:23;;;;;;;11.30;10.40;;;21.40;99.90;;;;;;5035023;28;20969;-91
2022/06/04 10:54:57;;;;;;;11.70;10.70;;;21.10;99.90;;;;;;5034899;28;20837;-91
2022/06/04 10:57:29;;;;;;;13.47;12.27;;;21.10;99.90;;;;;;5037109;28;20973;-91
2022/06/04 11:00:01;;;;;;;13.80;12.50;;;20.90;99.90;;;;;;5034100;28;20491;-91
2022/06/04 11:02:37;;;;;;;13.80;12.70;;;20.80;99.90;;;;;;5037013;28;20458;-91
2022/06/04 11:05:09;;;;;;;12.70;11.40;;;20.90;99.90;;;;;;5035571;28;20451;-90
2022/06/04 11:07:52;;;;;;;11.63;10.63;;;20.80;99.90;;;;;;5032632;28;20773;-92
2022/06/04 11:10:22;;;;;;;11.90;10.80;;;21.00;99.90;;;;;;5036652;28;20435;-91
2022/06/04 11:12:54;;;;;;;12.03;11.03;;;20.90;99.90;;;;;;5037970;28;20451;-90
2022/06/04 11:15:26;;;;;;;13.23;12.10;;;20.90;99.90;;;;;;5033194;28;20447;-93
2022/06/04 11:18:02;;;;;;;11.63;10.47;;;20.90;99.90;;;;;;5036689;28;20451;-89
2022/06/04 11:20:32;;;;;;;12.10;11.10;;;20.90;99.90;;;;;;5035116;28;20486;-90
2022/06/04 11:23:16;;;;;;;12.13;11.00;;;20.80;99.90;;;;;;5036563;28;20447;-92
2022/06/04 11:25:47;;;;;;;12.70;11.60;;;20.80;99.90;;;;;;5041140;28;20451;-90
2022/06/04 11:28:24;;;;;;;12.93;11.93;;;20.70;99.90;;;;;;5053329;28;20482;-89
2022/06/04 11:30:59;;;;;;;13.67;12.43;;;20.50;99.90;;;;;;5045423;28;20563;-91
2022/06/04 11:33:36;;;;;;;12.30;11.10;;;20.50;99.90;;;;;;5033409;28;20930;-91
2022/06/04 11:36:20;;;;;;;13.43;12.23;;;20.40;99.90;;;;;;5034992;28;20858;-91
2022/06/04 11:39:06;;;;;;;12.70;11.60;;;20.50;99.90;;;;;;5036306;28;20455;-91
2022/06/04 11:41:39;;;;;;;12.03;11.00;;;20.50;99.90;;;;;;5036339;28;20447;-90
2022/06/04 11:44:21;;;;;;;13.30;12.10;;;20.50;99.90;;;;;;5032613;28;20954;-89
2022/06/04 11:46:59;;;;;;;13.10;11.90;;;20.80;99.90;;;;;;5036353;28;20486;-90
2022/06/04 11:49:35;;;;;;;13.43;12.20;;;21.00;99.90;;;;;;5035295;28;20828;-90
2022/06/04 11:52:18;;;;;;;14.10;12.90;;;21.10;99.90;;;;;;5031685;28;20462;-90
2022/06/04 11:54:58;;;;;;;13.03;12.00;;;21.30;99.90;;;;;;5035785;28;20942;-92
2022/06/04 11:57:32;;;;;;;12.37;11.37;;;21.50;99.90;;;;;;5035933;28;20447;-91
2022/06/04 12:00:13;;;;;;;12.50;11.40;;;21.70;99.90;;;;;;5035024;28;20527;-91
2022/06/04 12:02:49;;;;;;;13.63;12.50;;;21.60;99.90;;;;;;5035712;28;20509;-91
2022/06/04 12:05:27;;;;;;;11.97;10.93;;;22.10;99.90;;;;;;5034591;28;20458;-92
2022/06/04 12:07:55;;;;;;;13.50;12.30;;;22.40;99.90;;;;;;5032844;28;20464;-90
2022/06/04 12:10:37;;;;;;;11.90;10.83;;;22.30;99.90;;;;;;5032613;28;20447;-90
2022/06/04 12:13:11;;;;;;;12.80;11.80;;;21.70;99.90;;;;;;5033022;28;20514;-91
2022/06/04 12:15:42;;;;;;;12.93;11.83;;;21.60;99.90;;;;;;5034331;28;20457;-90
2022/06/04 12:18:27;;;;;;;12.43;11.30;;;22.10;99.90;;;;;;5033799;28;20462;-89
2022/06/04 12:26:33;;;;;;;12.90;11.90;;;23.70;99.90;;;;;;5038053;28;20521;-88
2022/06/04 12:29:01;;;;;;;13.53;12.50;;;23.90;99.90;;;;;;5041437;28;20443;-89
2022/06/04 12:31:37;;;;;;;13.57;12.17;;;23.20;99.90;;;;;;5040484;28;20806;-87
2022/06/04 12:34:05;;;;;;;11.80;10.83;;;;;;;;;;5040076;28;20451;-90
2022/06/04 12:36:37;;;;;;;11.00;10.20;;;24.20;99.90;;;;;;5039897;28;21015;-88
2022/06/04 12:39:07;;;;;;;10.73;9.73;;;24.20;99.90;;;;;;5033770;28;20822;-88
2022/06/04 12:41:42;;;;;;;11.80;10.80;;;24.90;99.90;;;;;;5031367;28;20919;-89
2022/06/04 12:44:27;;;;;;;13.73;12.63;;;24.70;99.90;;;;;;5036411;28;20435;-94
2022/06/04 12:46:56;;;;;;;12.83;11.83;;;24.40;99.90;;;;;;4975591;28;20473;-90
2022/06/04 12:49:32;;;;;;;12.60;11.33;;;23.90;99.90;;;;;;4975446;28;20445;-91
2022/06/04 12:52:07;;;;;;;11.77;10.77;;;24.00;99.90;;;;;;4980081;28;20449;-88
2022/06/04 12:54:54;;;;;;;12.77;11.67;;;23.10;99.90;;;;;;4983411;28;20449;-88
2022/06/04 12:57:40;;;;;;;12.03;11.13;;;23.30;99.90;;;;;;4984666;28;20481;-91
2022/06/04 13:00:49;;;;;;;13.40;12.00;;;24.20;99.90;;;;;;4987812;28;20482;-88
2022/06/04 13:03:38;;;;;;;10.97;10.03;;;24.80;99.90;;;;;;4933067;28;20442;-88
2022/06/04 13:06:35;;;;;;;11.57;10.57;;;24.50;99.90;;;;;;5043330;28;20518;-90
2022/06/04 13:09:17;;;;;;;10.50;9.60;;;;;;;;;;5041106;28;20458;-89
2022/06/04 13:12:17;;;;;;;9.57;8.67;;;25.00;99.90;;;;;;5037191;28;20482;-89
2022/06/04 13:14:49;;;;;;;9.03;8.23;;;26.00;99.90;;;;;;5033737;28;20448;-91
2022/06/04 13:17:20;;;;;;;10.73;9.70;;;26.20;99.90;;;;;;5039898;28;20443;-88
2022/06/04 13:20:34;;;;;;;9.80;9.00;;;26.10;99.90;;;;;;5043140;28;20907;-94
2022/06/04 13:23:08;;;;;;;8.60;7.70;;;25.10;99.90;;;;;;5044425;28;20452;-87
2022/06/04 13:25:43;;;;;;;7.30;6.80;;;26.10;99.90;;;;;;5042193;28;20455;-90
2022/06/04 13:31:23;;;;;;;8.10;7.30;;;26.90;99.90;;;;;;5002864;28;20446;-88
2022/06/04 13:33:52;;;;;;;9.67;8.87;;;26.30;98.70;;;;;;5050821;28;20486;-91
2022/06/04 13:36:22;;;;;;;10.07;9.20;;;25.60;99.80;;;;;;5040047;28;20472;-92
2022/06/04 13:38:59;;;;;;;7.00;6.50;;;24.50;99.90;;;;;;5042390;28;20446;-89
2022/06/04 13:44:18;;;;;;;6.87;6.37;;;25.00;99.90;;;;;;5041196;28;20446;-89
2022/06/04 13:46:46;;;;;;;8.27;7.67;;;25.30;99.90;;;;;;5031958;28;20474;-90
2022/06/04 13:49:15;;;;;;;8.37;7.73;;;25.50;99.90;;;;;;5032142;28;20459;-91
2022/06/04 13:51:47;;;;;;;8.07;7.43;;;25.80;99.90;;;;;;5036967;28;20443;-91
2022/06/04 13:54:22;;;;;;;7.77;6.97;;;25.80;99.90;;;;;;4980693;28;20452;-89
2022/06/04 13:56:49;;;;;;;7.60;6.83;;;;;;;;;;5041323;28;20447;-90
2022/06/04 13:59:27;;;;;;;8.43;7.63;;;26.20;99.90;;;;;;5037040;28;20930;-91
2022/06/04 14:01:59;;;;;;;9.73;9.00;;;26.30;99.90;;;;;;5035773;28;20466;-91
2022/06/04 14:07:24;;;;;;;8.80;8.13;;;25.90;99.10;;;;;;5047226;28;20462;-93
2022/06/04 14:09:53;;;;;;;7.43;6.83;;;26.60;99.20;;;;;;5057742;28;20443;-93
2022/06/04 14:12:30;;;;;;;8.73;7.07;;;26.10;99.90;;;;;;5046955;28;20456;-90
2022/06/04 14:15:12;;;;;;;7.23;6.73;;;25.60;99.90;;;;;;5038461;28;20438;-91
2022/06/04 14:17:57;;;;;;;6.60;6.10;;;25.80;99.90;;;;;;5035829;28;20444;-92